sensor_id;sensor_type;location;lat;lon;timestamp;pressure;altitude;pressure_sealevel;temperature;humidity
75425;BME280;64007;50.632;13.700;2023-04-24T00:00:42;96839.25;;;10.76;100.00
75425;BME280;64007;50.632;13.700;2023-04-24T00:03:24;96836.44;;;10.78;100.00
75425;BME280;64007;50.632;13.700;2023-04-24T00:05:50;96827.63;;;10.77;100.00
75425;BME280;64007;50.632;13.700;2023-04-24T00:08:17;96827.63;;;10.77;100.00
75425;BME280;64007;50.632;13.700;2023-04-24T00:10:42;96816.84;;;10.79;100.00
75425;BME280;64007;50.632;13.700;2023-04-24T00:13:08;96814.56;;;10.84;100.00
75425;BME280;64007;50.632;13.700;2023-04-24T00:15:34;96812.28;;;10.89;100.00
75425;BME280;64007;50.632;13.700;2023-04-24T00:18:00;96819.59;;;10.87;100.00
75425;BME280;64007;50.632;13.700;2023-04-24T00:20:27;96815.25;;;10.86;100.00
75425;BME280;64007;50.632;13.700;2023-04-24T00:22:55;96817.91;;;10.86;100.00
75425;BME280;64007;50.632;13.700;2023-04-24T00:25:21;96821.41;;;10.86;100.00
75425;BME280;64007;50.632;13.700;2023-04-24T00:27:47;96820.56;;;10.86;100.00
75425;BME280;64007;50.632;13.700;2023-04-24T00:30:12;96818.59;;;10.88;100.00
75425;BME280;64007;50.632;13.700;2023-04-24T00:32:38;96827.75;;;11.19;100.00
75425;BME280;64007;50.632;13.700;2023-04-24T00:35:05;96826.75;;;11.20;100.00
75425;BME280;64007;50.632;13.700;2023-04-24T00:37:31;96826.03;;;11.10;100.00
75425;BME280;64007;50.632;13.700;2023-04-24T00:39:57;96825.06;;;11.11;100.00
75425;BME280;64007;50.632;13.700;2023-04-24T00:42:23;96830.69;;;11.08;100.00
75425;BME280;64007;50.632;13.700;2023-04-24T00:44:49;96828.47;;;11.21;100.00
75425;BME280;64007;50.632;13.700;2023-04-24T00:47:15;96821.88;;;11.08;100.00
75425;BME280;64007;50.632;13.700;2023-04-24T00:49:41;96828.13;;;10.98;100.00
75425;BME280;64007;50.632;13.700;2023-04-24T00:52:07;96824.78;;;10.96;100.00
75425;BME280;64007;50.632;13.700;2023-04-24T00:54:35;96825.94;;;10.94;100.00
75425;BME280;64007;50.632;13.700;2023-04-24T00:57:02;96827.59;;;10.95;100.00
75425;BME280;64007;50.632;13.700;2023-04-24T00:59:29;96834.59;;;10.96;100.00
75425;BME280;64007;50.632;13.700;2023-04-24T01:01:55;96832.63;;;10.98;100.00
75425;BME280;64007;50.632;13.700;2023-04-24T01:04:21;96838.47;;;11.02;100.00
75425;BME280;64007;50.632;13.700;2023-04-24T01:06:48;96839.19;;;11.12;100.00
75425;BME280;64007;50.632;13.700;2023-04-24T01:09:16;96842.00;;;11.10;100.00
75425;BME280;64007;50.632;13.700;2023-04-24T01:11:42;96840.03;;;11.12;100.00
75425;BME280;64007;50.632;13.700;2023-04-24T01:14:09;96846.66;;;11.08;100.00
75425;BME280;64007;50.632;13.700;2023-04-24T01:16:35;96840.34;;;11.09;100.00
75425;BME280;64007;50.632;13.700;2023-04-24T01:19:02;96841.91;;;11.20;100.00
75425;BME280;64007;50.632;13.700;2023-04-24T01:21:29;96837.38;;;11.12;100.00
75425;BME280;64007;50.632;13.700;2023-04-24T01:23:56;96824.38;;;11.09;100.00
75425;BME280;64007;50.632;13.700;2023-04-24T01:26:22;96824.69;;;11.06;100.00
75425;BME280;64007;50.632;13.700;2023-04-24T01:28:49;96826.66;;;11.04;100.00
75425;BME280;64007;50.632;13.700;2023-04-24T01:31:14;96828.97;;;10.99;100.00
75425;BME280;64007;50.632;13.700;2023-04-24T01:33:41;96829.97;;;10.98;100.00
75425;BME280;64007;50.632;13.700;2023-04-24T01:36:09;96836.69;;;11.10;100.00
75425;BME280;64007;50.632;13.700;2023-04-24T01:38:36;96837.00;;;11.07;100.00
75425;BME280;64007;50.632;13.700;2023-04-24T01:41:02;96833.28;;;11.00;100.00
75425;BME280;64007;50.632;13.700;2023-04-24T01:43:28;96835.53;;;10.87;100.00
75425;BME280;64007;50.632;13.700;2023-04-24T01:45:54;96829.13;;;10.80;100.00
75425;BME280;64007;50.632;13.700;2023-04-24T01:48:20;96833.72;;;10.70;100.00
75425;BME280;64007;50.632;13.700;2023-04-24T01:50:45;96827.34;;;10.62;100.00
75425;BME280;64007;50.632;13.700;2023-04-24T01:53:11;96822.34;;;10.59;100.00
75425;BME280;64007;50.632;13.700;2023-04-24T01:55:37;96826.97;;;10.57;100.00
75425;BME280;64007;50.632;13.700;2023-04-24T01:58:03;96816.41;;;10.65;100.00
75425;BME280;64007;50.632;13.700;2023-04-24T02:00:29;96813.69;;;10.57;100.00
75425;BME280;64007;50.632;13.700;2023-04-24T02:02:54;96816.41;;;10.65;100.00
75425;BME280;64007;50.632;13.700;2023-04-24T02:05:20;96809.88;;;10.60;100.00
75425;BME280;64007;50.632;13.700;2023-04-24T02:07:46;96807.84;;;10.54;100.00
75425;BME280;64007;50.632;13.700;2023-04-24T02:10:11;96812.00;;;10.56;100.00
75425;BME280;64007;50.632;13.700;2023-04-24T02:12:37;96818.31;;;10.55;100.00
75425;BME280;64007;50.632;13.700;2023-04-24T02:15:04;96823.75;;;10.72;100.00
75425;BME280;64007;50.632;13.700;2023-04-24T02:17:30;96813.53;;;10.59;100.00
75425;BME280;64007;50.632;13.700;2023-04-24T02:19:56;96811.50;;;10.53;100.00
75425;BME280;64007;50.632;13.700;2023-04-24T02:22:21;96825.25;;;10.48;100.00
75425;BME280;64007;50.632;13.700;2023-04-24T02:24:47;96819.72;;;10.42;100.00
75425;BME280;64007;50.632;13.700;2023-04-24T02:27:13;96820.81;;;10.39;100.00
75425;BME280;64007;50.632;13.700;2023-04-24T02:29:38;96816.78;;;10.35;100.00
75425;BME280;64007;50.632;13.700;2023-04-24T02:32:04;96812.78;;;10.31;100.00
75425;BME280;64007;50.632;13.700;2023-04-24T02:34:29;96809.44;;;10.29;100.00
75425;BME280;64007;50.632;13.700;2023-04-24T02:36:55;96803.75;;;10.24;100.00
75425;BME280;64007;50.632;13.700;2023-04-24T02:39:21;96810.31;;;10.20;100.00
75425;BME280;64007;50.632;13.700;2023-04-24T02:41:47;96803.63;;;10.16;100.00
75425;BME280;64007;50.632;13.700;2023-04-24T02:44:13;96802.66;;;10.17;100.00
75425;BME280;64007;50.632;13.700;2023-04-24T02:46:39;96800.31;;;10.14;100.00
75425;BME280;64007;50.632;13.700;2023-04-24T02:49:06;96793.31;;;10.13;100.00
75425;BME280;64007;50.632;13.700;2023-04-24T02:51:32;96791.66;;;10.12;100.00
75425;BME280;64007;50.632;13.700;2023-04-24T02:53:57;96797.78;;;10.12;100.00
75425;BME280;64007;50.632;13.700;2023-04-24T02:56:23;96797.94;;;10.11;100.00
75425;BME280;64007;50.632;13.700;2023-04-24T02:58:49;96796.44;;;10.08;100.00
75425;BME280;64007;50.632;13.700;2023-04-24T03:01:15;96793.09;;;10.06;100.00
75425;BME280;64007;50.632;13.700;2023-04-24T03:03:40;96804.56;;;10.07;100.00
75425;BME280;64007;50.632;13.700;2023-04-24T03:06:06;96798.41;;;10.06;100.00
75425;BME280;64007;50.632;13.700;2023-04-24T03:08:33;96799.53;;;10.03;100.00
75425;BME280;64007;50.632;13.700;2023-04-24T03:10:59;96803.88;;;10.04;100.00
75425;BME280;64007;50.632;13.700;2023-04-24T03:13:25;96806.53;;;10.04;100.00
75425;BME280;64007;50.632;13.700;2023-04-24T03:15:51;96801.50;;;10.01;100.00
75425;BME280;64007;50.632;13.700;2023-04-24T03:18:17;96805.84;;;10.02;100.00
75425;BME280;64007;50.632;13.700;2023-04-24T03:20:45;96803.19;;;10.02;100.00
75425;BME280;64007;50.632;13.700;2023-04-24T03:23:11;96804.84;;;10.03;100.00
75425;BME280;64007;50.632;13.700;2023-04-24T03:25:37;96797.88;;;10.02;100.00
75425;BME280;64007;50.632;13.700;2023-04-24T03:28:03;96799.81;;;10.00;100.00
75425;BME280;64007;50.632;13.700;2023-04-24T03:30:28;96797.16;;;10.00;100.00
75425;BME280;64007;50.632;13.700;2023-04-24T03:32:54;96799.13;;;9.98;100.00
75425;BME280;64007;50.632;13.700;2023-04-24T03:35:20;96800.13;;;9.97;100.00
75425;BME280;64007;50.632;13.700;2023-04-24T03:37:47;96800.41;;;9.94;100.00
75425;BME280;64007;50.632;13.700;2023-04-24T03:40:13;96801.56;;;9.92;100.00
75425;BME280;64007;50.632;13.700;2023-04-24T03:42:38;96809.66;;;9.90;100.00
75425;BME280;64007;50.632;13.700;2023-04-24T03:45:05;96806.31;;;9.88;100.00
75425;BME280;64007;50.632;13.700;2023-04-24T03:47:30;96802.00;;;9.87;100.00
75425;BME280;64007;50.632;13.700;2023-04-24T03:49:56;96803.97;;;9.85;100.00
75425;BME280;64007;50.632;13.700;2023-04-24T03:52:22;96810.72;;;9.80;100.00
75425;BME280;64007;50.632;13.700;2023-04-24T03:54:48;96807.91;;;9.81;100.00
75425;BME280;64007;50.632;13.700;2023-04-24T03:57:13;96801.91;;;9.79;100.00
75425;BME280;64007;50.632;13.700;2023-04-24T03:59:39;96799.25;;;9.79;100.00
75425;BME280;64007;50.632;13.700;2023-04-24T04:02:04;96808.06;;;9.80;100.00
75425;BME280;64007;50.632;13.700;2023-04-24T04:04:30;96810.56;;;9.81;100.00
75425;BME280;64007;50.632;13.700;2023-04-24T04:06:56;96806.09;;;9.82;100.00
75425;BME280;64007;50.632;13.700;2023-04-24T04:09:22;96814.22;;;9.80;100.00
75425;BME280;64007;50.632;13.700;2023-04-24T04:11:47;96810.88;;;9.78;100.00
75425;BME280;64007;50.632;13.700;2023-04-24T04:14:13;96819.81;;;9.77;100.00
75425;BME280;64007;50.632;13.700;2023-04-24T04:16:39;96817.75;;;9.71;100.00
75425;BME280;64007;50.632;13.700;2023-04-24T04:19:05;96810.94;;;9.68;100.00
75425;BME280;64007;50.632;13.700;2023-04-24T04:21:30;96810.94;;;9.68;100.00
75425;BME280;64007;50.632;13.700;2023-04-24T04:23:57;96812.06;;;9.66;100.00
75425;BME280;64007;50.632;13.700;2023-04-24T04:26:23;96814.03;;;9.64;100.00
75425;BME280;64007;50.632;13.700;2023-04-24T04:28:51;96812.34;;;9.63;100.00
75425;BME280;64007;50.632;13.700;2023-04-24T04:31:19;96815.69;;;9.65;100.00
75425;BME280;64007;50.632;13.700;2023-04-24T04:33:45;96817.38;;;9.66;100.00
75425;BME280;64007;50.632;13.700;2023-04-24T04:36:11;96815.41;;;9.68;100.00
75425;BME280;64007;50.632;13.700;2023-04-24T04:38:37;96808.13;;;9.70;100.00
75425;BME280;64007;50.632;13.700;2023-04-24T04:41:03;96807.81;;;9.73;100.00
75425;BME280;64007;50.632;13.700;2023-04-24T04:43:29;96812.69;;;9.78;100.00
75425;BME280;64007;50.632;13.700;2023-04-24T04:45:57;96811.72;;;9.96;100.00
75425;BME280;64007;50.632;13.700;2023-04-24T04:48:23;96810.88;;;9.96;100.00
75425;BME280;64007;50.632;13.700;2023-04-24T04:50:48;96813.25;;;9.99;100.00
75425;BME280;64007;50.632;13.700;2023-04-24T04:53:14;96804.84;;;10.03;100.00
75425;BME280;64007;50.632;13.700;2023-04-24T04:55:40;96816.53;;;10.11;100.00
75425;BME280;64007;50.632;13.700;2023-04-24T04:58:06;96822.22;;;10.16;100.00
75425;BME280;64007;50.632;13.700;2023-04-24T05:00:31;96826.13;;;10.21;100.00
75425;BME280;64007;50.632;13.700;2023-04-24T05:03:01;96831.53;;;10.29;100.00
75425;BME280;64007;50.632;13.700;2023-04-24T05:05:28;96830.06;;;10.35;100.00
75425;BME280;64007;50.632;13.700;2023-04-24T05:07:53;96833.38;;;10.47;100.00
75425;BME280;64007;50.632;13.700;2023-04-24T05:10:19;96832.91;;;10.51;100.00
75425;BME280;64007;50.632;13.700;2023-04-24T05:12:45;96829.63;;;10.57;100.00
75425;BME280;64007;50.632;13.700;2023-04-24T05:15:10;96831.31;;;10.58;100.00
75425;BME280;64007;50.632;13.700;2023-04-24T05:17:36;96834.34;;;10.63;100.00
75425;BME280;64007;50.632;13.700;2023-04-24T05:20:03;96829.69;;;10.65;100.00
75425;BME280;64007;50.632;13.700;2023-04-24T05:22:31;96831.91;;;10.70;100.00
75425;BME280;64007;50.632;13.700;2023-04-24T05:24:57;96835.91;;;10.74;100.00
75425;BME280;64007;50.632;13.700;2023-04-24T05:27:23;96831.94;;;10.78;100.00
75425;BME280;64007;50.632;13.700;2023-04-24T05:29:49;96828.69;;;10.84;100.00
75425;BME280;64007;50.632;13.700;2023-04-24T05:32:15;96822.91;;;10.89;100.00
75425;BME280;64007;50.632;13.700;2023-04-24T05:34:41;96826.63;;;10.96;100.00
75425;BME280;64007;50.632;13.700;2023-04-24T05:37:07;96821.34;;;11.04;100.00
75425;BME280;64007;50.632;13.700;2023-04-24T05:39:35;96823.22;;;11.12;100.00
75425;BME280;64007;50.632;13.700;2023-04-24T05:42:02;96823.44;;;11.18;100.00
75425;BME280;64007;50.632;13.700;2023-04-24T05:44:30;96826.47;;;11.23;100.00
75425;BME280;64007;50.632;13.700;2023-04-24T05:46:56;96822.19;;;11.30;100.00
75425;BME280;64007;50.632;13.700;2023-04-24T05:49:22;96829.53;;;11.37;100.00
75425;BME280;64007;50.632;13.700;2023-04-24T05:51:48;96819.25;;;11.42;100.00
75425;BME280;64007;50.632;13.700;2023-04-24T05:54:14;96813.59;;;11.45;100.00
75425;BME280;64007;50.632;13.700;2023-04-24T05:56:40;96814.63;;;11.52;100.00
75425;BME280;64007;50.632;13.700;2023-04-24T05:59:06;96825.63;;;11.57;100.00
75425;BME280;64007;50.632;13.700;2023-04-24T06:01:31;96835.34;;;11.66;100.00
75425;BME280;64007;50.632;13.700;2023-04-24T06:03:57;96830.38;;;11.71;100.00
75425;BME280;64007;50.632;13.700;2023-04-24T06:06:24;96840.41;;;11.77;100.00
75425;BME280;64007;50.632;13.700;2023-04-24T06:08:49;96845.09;;;11.83;100.00
75425;BME280;64007;50.632;13.700;2023-04-24T06:11:15;96844.47;;;11.89;100.00
75425;BME280;64007;50.632;13.700;2023-04-24T06:13:41;96841.63;;;11.91;100.00
75425;BME280;64007;50.632;13.700;2023-04-24T06:16:07;96849.97;;;11.96;100.00
75425;BME280;64007;50.632;13.700;2023-04-24T06:18:33;96858.56;;;12.16;100.00
75425;BME280;64007;50.632;13.700;2023-04-24T06:20:59;96860.59;;;12.38;100.00
75425;BME280;64007;50.632;13.700;2023-04-24T06:23:25;96854.97;;;12.41;100.00
75425;BME280;64007;50.632;13.700;2023-04-24T06:25:51;96861.75;;;12.36;100.00
75425;BME280;64007;50.632;13.700;2023-04-24T06:28:16;96858.59;;;12.40;100.00
75425;BME280;64007;50.632;13.700;2023-04-24T06:30:42;96864.91;;;12.31;100.00
75425;BME280;64007;50.632;13.700;2023-04-24T06:33:08;96863.59;;;12.35;100.00
75425;BME280;64007;50.632;13.700;2023-04-24T06:35:35;96865.91;;;12.38;100.00
75425;BME280;64007;50.632;13.700;2023-04-24T06:38:01;96869.59;;;12.37;100.00
75425;BME280;64007;50.632;13.700;2023-04-24T06:40:27;96870.25;;;12.31;100.00
75425;BME280;64007;50.632;13.700;2023-04-24T06:42:53;96873.13;;;12.46;100.00
75425;BME280;64007;50.632;13.700;2023-04-24T06:45:19;96882.75;;;12.39;100.00
75425;BME280;64007;50.632;13.700;2023-04-24T06:47:44;96876.28;;;12.41;100.00
75425;BME280;64007;50.632;13.700;2023-04-24T06:50:10;96879.47;;;12.53;100.00
75425;BME280;64007;50.632;13.700;2023-04-24T06:52:36;96878.31;;;12.64;100.00
75425;BME280;64007;50.632;13.700;2023-04-24T06:55:03;96879.66;;;12.76;100.00
75425;BME280;64007;50.632;13.700;2023-04-24T06:57:30;96875.34;;;12.83;100.00
75425;BME280;64007;50.632;13.700;2023-04-24T06:59:56;96873.50;;;12.92;100.00
75425;BME280;64007;50.632;13.700;2023-04-24T07:02:23;96868.66;;;12.95;100.00
75425;BME280;64007;50.632;13.700;2023-04-24T07:04:48;96882.69;;;12.97;100.00
75425;BME280;64007;50.632;13.700;2023-04-24T07:07:14;96878.69;;;13.01;100.00
75425;BME280;64007;50.632;13.700;2023-04-24T07:09:40;96877.50;;;13.12;100.00
75425;BME280;64007;50.632;13.700;2023-04-24T07:12:09;96886.56;;;13.27;100.00
75425;BME280;64007;50.632;13.700;2023-04-24T07:14:39;96897.69;;;13.47;100.00
75425;BME280;64007;50.632;13.700;2023-04-24T07:17:05;96897.00;;;13.69;100.00
75425;BME280;64007;50.632;13.700;2023-04-24T07:19:33;96888.22;;;13.92;100.00
75425;BME280;64007;50.632;13.700;2023-04-24T07:21:59;96889.03;;;14.00;100.00
75425;BME280;64007;50.632;13.700;2023-04-24T07:24:25;96894.84;;;14.12;100.00
75425;BME280;64007;50.632;13.700;2023-04-24T07:26:52;96892.84;;;14.14;100.00
75425;BME280;64007;50.632;13.700;2023-04-24T07:29:18;96900.34;;;14.19;100.00
75425;BME280;64007;50.632;13.700;2023-04-24T07:31:45;96902.22;;;14.10;100.00
75425;BME280;64007;50.632;13.700;2023-04-24T07:34:11;96897.22;;;14.07;100.00
75425;BME280;64007;50.632;13.700;2023-04-24T07:36:36;96908.91;;;13.98;100.00
75425;BME280;64007;50.632;13.700;2023-04-24T07:39:04;96905.25;;;13.99;100.00
75425;BME280;64007;50.632;13.700;2023-04-24T07:41:31;96899.22;;;13.97;100.00
75425;BME280;64007;50.632;13.700;2023-04-24T07:43:58;96903.75;;;13.96;100.00
75425;BME280;64007;50.632;13.700;2023-04-24T07:46:24;96900.59;;;13.93;100.00
75425;BME280;64007;50.632;13.700;2023-04-24T07:48:50;96901.75;;;13.90;100.00
75425;BME280;64007;50.632;13.700;2023-04-24T07:51:16;96900.09;;;13.89;100.00
75425;BME280;64007;50.632;13.700;2023-04-24T07:53:42;96908.94;;;13.90;100.00
75425;BME280;64007;50.632;13.700;2023-04-24T07:56:08;96901.75;;;13.90;100.00
75425;BME280;64007;50.632;13.700;2023-04-24T07:58:34;96902.94;;;13.88;100.00
75425;BME280;64007;50.632;13.700;2023-04-24T08:01:00;96907.66;;;13.77;100.00
75425;BME280;64007;50.632;13.700;2023-04-24T08:03:26;96906.19;;;13.67;100.00
75425;BME280;64007;50.632;13.700;2023-04-24T08:05:52;96909.03;;;13.57;100.00
75425;BME280;64007;50.632;13.700;2023-04-24T08:08:20;96911.34;;;13.60;100.00
75425;BME280;64007;50.632;13.700;2023-04-24T08:10:46;96912.69;;;13.64;100.00
75425;BME280;64007;50.632;13.700;2023-04-24T08:13:12;96913.38;;;13.50;100.00
75425;BME280;64007;50.632;13.700;2023-04-24T08:15:37;96911.03;;;13.47;100.00
75425;BME280;64007;50.632;13.700;2023-04-24T08:18:03;96910.72;;;13.34;100.00
75425;BME280;64007;50.632;13.700;2023-04-24T08:20:29;96919.03;;;13.55;100.00
75425;BME280;64007;50.632;13.700;2023-04-24T08:22:55;96914.72;;;13.46;100.00
75425;BME280;64007;50.632;13.700;2023-04-24T08:25:21;96909.06;;;13.33;100.00
75425;BME280;64007;50.632;13.700;2023-04-24T08:27:48;96914.25;;;13.26;100.00
75425;BME280;64007;50.632;13.700;2023-04-24T08:30:14;96918.38;;;13.12;100.00
75425;BME280;64007;50.632;13.700;2023-04-24T08:32:40;96914.69;;;12.97;100.00
75425;BME280;64007;50.632;13.700;2023-04-24T08:35:06;96912.69;;;12.83;100.00
75425;BME280;64007;50.632;13.700;2023-04-24T08:37:34;96915.38;;;12.91;100.00
75425;BME280;64007;50.632;13.700;2023-04-24T08:40:03;96921.19;;;12.86;100.00
75425;BME280;64007;50.632;13.700;2023-04-24T08:42:31;96906.53;;;12.91;100.00
75425;BME280;64007;50.632;13.700;2023-04-24T08:44:58;96909.69;;;12.94;100.00
75425;BME280;64007;50.632;13.700;2023-04-24T08:47:25;96912.69;;;12.99;100.00
75425;BME280;64007;50.632;13.700;2023-04-24T08:49:52;96911.69;;;12.92;100.00
75425;BME280;64007;50.632;13.700;2023-04-24T08:52:20;96916.66;;;12.79;100.00
75425;BME280;64007;50.632;13.700;2023-04-24T08:54:48;96919.66;;;12.68;100.00
75425;BME280;64007;50.632;13.700;2023-04-24T08:57:14;96925.66;;;12.62;100.00
75425;BME280;64007;50.632;13.700;2023-04-24T08:59:40;96921.31;;;12.61;100.00
75425;BME280;64007;50.632;13.700;2023-04-24T09:02:10;96922.63;;;12.57;100.00
75425;BME280;64007;50.632;13.700;2023-04-24T09:04:36;96914.97;;;12.62;100.00
75425;BME280;64007;50.632;13.700;2023-04-24T09:07:03;96909.97;;;12.59;100.00
75425;BME280;64007;50.632;13.700;2023-04-24T09:09:30;96922.13;;;12.53;100.00
75425;BME280;64007;50.632;13.700;2023-04-24T09:11:58;96900.47;;;12.56;100.00
75425;BME280;64007;50.632;13.700;2023-04-24T09:14:23;96911.81;;;12.66;100.00
75425;BME280;64007;50.632;13.700;2023-04-24T09:16:50;96911.31;;;12.79;100.00
75425;BME280;64007;50.632;13.700;2023-04-24T09:19:15;96913.53;;;12.92;100.00
75425;BME280;64007;50.632;13.700;2023-04-24T09:21:45;96921.53;;;13.08;100.00
75425;BME280;64007;50.632;13.700;2023-04-24T09:24:19;96917.75;;;13.27;100.00
75425;BME280;64007;50.632;13.700;2023-04-24T09:26:49;96912.72;;;13.48;100.00
75425;BME280;64007;50.632;13.700;2023-04-24T09:29:22;96915.34;;;13.72;100.00
75425;BME280;64007;50.632;13.700;2023-04-24T09:31:48;96918.13;;;13.87;100.00
75425;BME280;64007;50.632;13.700;2023-04-24T09:34:13;96911.28;;;13.93;100.00
75425;BME280;64007;50.632;13.700;2023-04-24T09:36:42;96913.59;;;13.96;100.00
75425;BME280;64007;50.632;13.700;2023-04-24T09:39:09;96905.59;;;13.96;100.00
75425;BME280;64007;50.632;13.700;2023-04-24T09:41:44;96910.94;;;13.96;100.00
75425;BME280;64007;50.632;13.700;2023-04-24T09:46:46;96910.81;;;14.28;100.00
75425;BME280;64007;50.632;13.700;2023-04-24T09:49:16;96914.75;;;14.40;100.00
75425;BME280;64007;50.632;13.700;2023-04-24T09:51:42;96898.53;;;14.50;100.00
75425;BME280;64007;50.632;13.700;2023-04-24T09:54:20;96901.66;;;14.62;100.00
75425;BME280;64007;50.632;13.700;2023-04-24T09:56:48;96901.13;;;14.66;100.00
75425;BME280;64007;50.632;13.700;2023-04-24T09:59:15;96900.59;;;14.71;100.00
75425;BME280;64007;50.632;13.700;2023-04-24T10:01:42;96900.53;;;14.79;100.00
75425;BME280;64007;50.632;13.700;2023-04-24T10:04:17;96887.16;;;15.02;100.00
75425;BME280;64007;50.632;13.700;2023-04-24T10:06:44;96891.25;;;15.50;100.00
75425;BME280;64007;50.632;13.700;2023-04-24T10:09:10;96887.63;;;16.10;100.00
75425;BME280;64007;50.632;13.700;2023-04-24T10:11:43;96884.56;;;16.64;100.00
75425;BME280;64007;50.632;13.700;2023-04-24T10:14:12;96886.16;;;17.16;100.00
75425;BME280;64007;50.632;13.700;2023-04-24T10:16:39;96887.91;;;17.51;100.00
75425;BME280;64007;50.632;13.700;2023-04-24T10:19:06;96879.31;;;17.91;100.00
75425;BME280;64007;50.632;13.700;2023-04-24T10:21:32;96882.19;;;18.24;77.98
75425;BME280;64007;50.632;13.700;2023-04-24T10:23:59;96877.69;;;18.37;81.49
75425;BME280;64007;50.632;13.700;2023-04-24T10:26:26;96879.97;;;18.40;74.29
75425;BME280;64007;50.632;13.700;2023-04-24T10:28:53;96884.41;;;18.07;76.56
75425;BME280;64007;50.632;13.700;2023-04-24T10:31:20;96889.88;;;17.92;72.06
75425;BME280;64007;50.632;13.700;2023-04-24T10:33:46;96872.16;;;17.48;71.72
75425;BME280;64007;50.632;13.700;2023-04-24T10:36:13;96873.00;;;17.00;74.00
75425;BME280;64007;50.632;13.700;2023-04-24T10:38:41;96881.03;;;16.78;75.60
75425;BME280;64007;50.632;13.700;2023-04-24T10:41:12;96882.38;;;16.53;80.26
75425;BME280;64007;50.632;13.700;2023-04-24T10:43:45;96881.22;;;16.26;77.39
75425;BME280;64007;50.632;13.700;2023-04-24T10:46:16;96886.34;;;15.77;81.08
75425;BME280;64007;50.632;13.700;2023-04-24T10:48:52;96897.53;;;15.57;84.28
75425;BME280;64007;50.632;13.700;2023-04-24T10:51:22;96882.06;;;15.30;88.23
75425;BME280;64007;50.632;13.700;2023-04-24T10:53:50;96891.66;;;15.24;92.50
75425;BME280;64007;50.632;13.700;2023-04-24T10:56:17;96891.59;;;15.10;90.44
75425;BME280;64007;50.632;13.700;2023-04-24T10:58:44;96894.78;;;14.90;94.70
75425;BME280;64007;50.632;13.700;2023-04-24T11:01:31;96896.81;;;14.88;100.00
75425;BME280;64007;50.632;13.700;2023-04-24T11:04:02;96894.06;;;14.96;96.79
75425;BME280;64007;50.632;13.700;2023-04-24T11:06:30;96895.69;;;15.20;97.20
75425;BME280;64007;50.632;13.700;2023-04-24T11:09:10;96901.56;;;15.01;97.26
75425;BME280;64007;50.632;13.700;2023-04-24T11:11:44;96900.00;;;14.84;97.92
75425;BME280;64007;50.632;13.700;2023-04-24T11:14:10;96897.00;;;14.79;97.49
75425;BME280;64007;50.632;13.700;2023-04-24T11:16:44;96894.88;;;14.74;100.00
75425;BME280;64007;50.632;13.700;2023-04-24T11:19:18;96886.53;;;14.69;90.79
75425;BME280;64007;50.632;13.700;2023-04-24T11:22:01;96900.88;;;14.76;75.43
75425;BME280;64007;50.632;13.700;2023-04-24T11:24:49;96892.50;;;14.79;70.70
75425;BME280;64007;50.632;13.700;2023-04-24T11:27:20;96900.13;;;14.90;77.33
75425;BME280;64007;50.632;13.700;2023-04-24T11:29:59;96905.97;;;14.94;75.89
75425;BME280;64007;50.632;13.700;2023-04-24T11:32:42;96898.34;;;15.05;69.74
75425;BME280;64007;50.632;13.700;2023-04-24T11:35:17;96889.03;;;15.16;74.23
75425;BME280;64007;50.632;13.700;2023-04-24T11:37:46;96888.84;;;15.55;75.32
75425;BME280;64007;50.632;13.700;2023-04-24T11:40:13;96885.47;;;16.35;67.32
75425;BME280;64007;50.632;13.700;2023-04-24T11:42:46;96880.28;;;16.84;60.77
75425;BME280;64007;50.632;13.700;2023-04-24T11:45:12;96887.63;;;16.97;61.45
75425;BME280;64007;50.632;13.700;2023-04-24T11:47:39;96894.34;;;16.86;60.61
75425;BME280;64007;50.632;13.700;2023-04-24T11:50:07;96883.34;;;17.03;62.56
75425;BME280;64007;50.632;13.700;2023-04-24T11:52:38;96881.94;;;17.28;61.25
75425;BME280;64007;50.632;13.700;2023-04-24T11:55:04;96883.22;;;17.32;59.21
75425;BME280;64007;50.632;13.700;2023-04-24T11:57:32;96882.72;;;17.22;60.12
75425;BME280;64007;50.632;13.700;2023-04-24T12:00:04;96881.41;;;17.18;58.43
75425;BME280;64007;50.632;13.700;2023-04-24T12:02:33;96881.69;;;17.02;59.96
75425;BME280;64007;50.632;13.700;2023-04-24T12:04:59;96887.31;;;16.85;56.99
75425;BME280;64007;50.632;13.700;2023-04-24T12:07:25;96888.97;;;16.50;58.23
75425;BME280;64007;50.632;13.700;2023-04-24T12:09:58;96888.81;;;16.22;61.03
75425;BME280;64007;50.632;13.700;2023-04-24T12:12:27;96888.34;;;16.34;61.97
75425;BME280;64007;50.632;13.700;2023-04-24T12:14:57;96884.63;;;16.49;59.71
75425;BME280;64007;50.632;13.700;2023-04-24T12:17:26;96886.75;;;16.39;59.99
75425;BME280;64007;50.632;13.700;2023-04-24T12:19:52;96874.59;;;16.58;59.50
75425;BME280;64007;50.632;13.700;2023-04-24T12:22:19;96880.72;;;16.52;59.82
75425;BME280;64007;50.632;13.700;2023-04-24T12:25:02;96881.97;;;16.85;58.42
75425;BME280;64007;50.632;13.700;2023-04-24T12:27:32;96880.91;;;17.57;55.19
75425;BME280;64007;50.632;13.700;2023-04-24T12:30:00;96876.59;;;18.19;54.36
75425;BME280;64007;50.632;13.700;2023-04-24T12:32:26;96883.13;;;18.44;53.67
75425;BME280;64007;50.632;13.700;2023-04-24T12:34:52;96873.91;;;18.66;55.00
75425;BME280;64007;50.632;13.700;2023-04-24T12:37:18;96871.47;;;18.37;55.19
75425;BME280;64007;50.632;13.700;2023-04-24T12:40:10;96877.59;;;17.76;56.94
75425;BME280;64007;50.632;13.700;2023-04-24T12:42:43;96865.78;;;17.49;58.27
75425;BME280;64007;50.632;13.700;2023-04-24T12:45:09;96869.25;;;17.43;53.30